Odiham, United Kingdom
Current Conditions -  °F | °C
As of 4:50 PM on Thursday 23 Oct 2014 (Local Time) from EGVO Reporting Station
Light Rain Light Rain  
Wind Chill: 14°   Ceiling: 1200
Heat Index: 14°   Visibility: 6mi
Dew Point: 13°   Wind: 12mph
Humidity: 94%   Direction: 210°SSW
Pressure: 30.06"   Gusts: NA
Location:  51.25°N, 0.94°W
Report Text: EGVO 231550Z 21010KT 9999 -RADZ BKN012 BKN020 14/13 Q1018 GRN NOSIG
Loading
Personal Weather Stations






























Interactive Weather Map
Tropical Storm Tracking
New forecast layout! Learn more

10-Day Weather Forecast

Advertisements
Track Severe Weather on mobile